Time,TemperatureF,DewpointF,PressureIn,WindDirection,WindDirectionDegrees,WindSpeedMPH,WindSpeedGustMPH,Humidity,HourlyPrecipIn,Conditions,Clouds,dailyrainin,SolarRadiationWatts/m^2,SoftwareType,DateUTC
2013-05-18 00:01:00,46.0,43.5,30.01,NW,321,5.0,8.0,91,0.00,RA,,0.00,0.0,WeatherDisplay:10.37,2013-05-17 23:01:00,
2013-05-18 00:11:00,45.9,43.4,30.01,NW,324,3.0,8.0,91,0.00,CLR,,0.00,0.0,WeatherDisplay:10.37,2013-05-17 23:11:00,
2013-05-18 00:16:00,45.8,43.3,30.01,NW,325,5.0,10.0,91,0.00,CLR,,0.00,0.0,WeatherDisplay:10.37,2013-05-17 23:16:00,
2013-05-18 00:21:00,45.8,43.3,30.01,NW,321,6.0,12.0,91,0.00,CLR,,0.00,0.0,WeatherDisplay:10.37,2013-05-17 23:21:00,
2013-05-18 00:26:00,45.7,43.2,30.01,NW,319,7.0,12.0,91,0.00,CLR,,0.00,0.0,WeatherDisplay:10.37,2013-05-17 23:26:00,
2013-05-18 00:31:00,45.6,43.1,30.01,NW,315,7.0,10.0,91,0.00,CLR,,0.00,0.0,WeatherDisplay:10.37,2013-05-17 23:31:00,
2013-05-18 00:41:00,45.4,43.0,30.01,NNW,327,3.0,8.0,91,0.00,CLR,,0.00,0.0,WeatherDisplay:10.37,2013-05-17 23:41:00,
2013-05-18 00:46:00,45.4,42.9,30.00,NNW,328,6.0,10.0,91,0.00,CLR,,0.00,0.0,WeatherDisplay:10.37,2013-05-17 23:46:00,
2013-05-18 00:51:00,45.3,42.8,30.01,NW,322,6.0,8.0,91,0.00,CLR,,0.00,0.0,WeatherDisplay:10.37,2013-05-17 23:51:00,
2013-05-18 00:56:00,45.3,42.8,30.01,NW,320,6.0,10.0,91,0.00,CLR,,0.00,0.0,WeatherDisplay:10.37,2013-05-17 23:56:00,
2013-05-18 01:01:00,45.3,43.1,30.01,NW,319,6.0,9.0,92,0.00,CLR,,0.00,0.0,WeatherDisplay:10.37,2013-05-18 00:01:00,
2013-05-18 01:11:00,45.3,43.1,30.01,NW,322,5.0,11.0,92,0.00,CLR,,0.00,0.0,WeatherDisplay:10.37,2013-05-18 00:11:00,
2013-05-18 01:16:00,45.3,43.1,30.01,NW,316,5.0,9.0,92,0.00,CLR,,0.00,0.0,WeatherDisplay:10.37,2013-05-18 00:16:00,
2013-05-18 01:21:00,45.2,43.0,30.01,NW,315,5.0,7.0,92,0.00,CLR,,0.00,0.0,WeatherDisplay:10.37,2013-05-18 00:21:00,
2013-05-18 01:26:00,45.2,43.0,30.01,NW,309,6.0,12.0,92,0.00,CLR,,0.00,0.0,WeatherDisplay:10.37,2013-05-18 00:26:00,
2013-05-18 01:31:00,45.2,43.0,30.00,NW,309,5.0,10.0,92,0.00,CLR,,0.00,0.0,WeatherDisplay:10.37,2013-05-18 00:31:00,
2013-05-18 01:41:00,45.2,43.0,30.00,NW,315,5.0,10.0,92,0.00,CLR,,0.00,0.0,WeatherDisplay:10.37,2013-05-18 00:41:00,
2013-05-18 01:46:00,45.2,43.3,30.00,NW,321,3.0,10.0,93,0.00,CLR,,0.00,0.0,WeatherDisplay:10.37,2013-05-18 00:46:00,
2013-05-18 01:51:00,45.2,43.0,30.00,NW,323,3.0,7.0,92,0.00,CLR,,0.00,0.0,WeatherDisplay:10.37,2013-05-18 00:51:00,
2013-05-18 02:01:00,45.2,43.3,30.00,NW,326,5.0,9.0,93,0.00,CLR,,0.00,0.0,WeatherDisplay:10.37,2013-05-18 01:01:00,
2013-05-18 02:11:00,45.1,43.2,30.00,NW,323,7.0,14.0,93,0.00,CLR,,0.00,0.0,WeatherDisplay:10.37,2013-05-18 01:11:00,
2013-05-18 02:16:00,45.3,43.4,30.00,NNW,329,7.0,12.0,93,0.00,CLR,,0.00,0.0,WeatherDisplay:10.37,2013-05-18 01:16:00,
2013-05-18 02:21:00,45.3,43.4,30.00,NNW,329,5.0,10.0,93,0.00,CLR,,0.00,0.0,WeatherDisplay:10.37,2013-05-18 01:21:00,
2013-05-18 02:31:00,45.3,43.4,30.00,NNW,328,5.0,9.0,93,0.00,CLR,,0.00,0.0,WeatherDisplay:10.37,2013-05-18 01:31:00,
2013-05-18 02:41:00,45.2,43.3,30.00,NNW,330,7.0,10.0,93,0.00,CLR,,0.00,0.0,WeatherDisplay:10.37,2013-05-18 01:41:00,
2013-05-18 02:46:00,45.2,43.3,30.00,NW,326,6.0,10.0,93,0.00,CLR,,0.00,0.0,WeatherDisplay:10.37,2013-05-18 01:46:00,
2013-05-18 02:51:00,45.2,43.3,29.99,NNW,327,5.0,12.0,93,0.00,CLR,,0.00,0.0,WeatherDisplay:10.37,2013-05-18 01:51:00,
2013-05-18 03:01:00,45.2,43.6,29.99,NNW,330,6.0,12.0,94,0.00,CLR,,0.00,0.0,WeatherDisplay:10.37,2013-05-18 02:01:00,
2013-05-18 03:11:00,45.3,43.4,29.99,NW,319,7.0,12.0,93,0.00,CLR,,0.00,0.0,WeatherDisplay:10.37,2013-05-18 02:11:00,
2013-05-18 03:16:00,45.3,43.4,29.99,NW,315,6.0,12.0,93,0.00,CLR,,0.00,0.0,WeatherDisplay:10.37,2013-05-18 02:16:00,
2013-05-18 03:21:00,45.3,43.4,29.98,NW,320,6.0,12.0,93,0.00,CLR,,0.00,0.0,WeatherDisplay:10.37,2013-05-18 02:21:00,
2013-05-18 03:26:00,45.4,43.5,29.98,NW,318,5.0,13.0,93,0.00,CLR,,0.00,0.0,WeatherDisplay:10.37,2013-05-18 02:26:00,
2013-05-18 03:31:00,45.4,43.5,29.99,NW,319,7.0,12.0,93,0.00,CLR,,0.00,0.0,WeatherDisplay:10.37,2013-05-18 02:31:00,
2013-05-18 03:41:00,45.4,43.5,29.99,NW,323,6.0,12.0,93,0.00,CLR,,0.00,0.0,WeatherDisplay:10.37,2013-05-18 02:41:00,
2013-05-18 03:46:00,45.4,43.5,29.99,NW,325,7.0,12.0,93,0.00,CLR,,0.00,0.0,WeatherDisplay:10.37,2013-05-18 02:46:00,
2013-05-18 03:56:00,45.4,43.5,29.99,NNW,329,7.0,14.0,93,0.00,CLR,,0.00,0.0,WeatherDisplay:10.37,2013-05-18 02:56:00,
2013-05-18 04:01:00,45.4,43.5,29.99,NNW,329,7.0,12.0,93,0.00,CLR,,0.00,0.0,WeatherDisplay:10.37,2013-05-18 03:01:00,
2013-05-18 04:11:00,45.3,43.1,29.99,NW,326,8.0,16.0,92,0.00,CLR,,0.00,0.0,WeatherDisplay:10.37,2013-05-18 03:11:00,
2013-05-18 04:16:00,45.3,43.1,29.99,NW,319,6.0,12.0,92,0.00,CLR,,0.00,0.0,WeatherDisplay:10.37,2013-05-18 03:16:00,
2013-05-18 04:21:00,45.3,43.1,29.99,NW,318,7.0,10.0,92,0.00,CLR,,0.00,0.0,WeatherDisplay:10.37,2013-05-18 03:21:00,
2013-05-18 04:26:00,45.2,43.0,29.99,NW,323,8.0,12.0,92,0.00,CLR,,0.00,0.0,WeatherDisplay:10.37,2013-05-18 03:26:00,
2013-05-18 04:31:00,45.2,43.0,29.99,NNW,330,5.0,8.0,92,0.00,CLR,,0.00,0.0,WeatherDisplay:10.37,2013-05-18 03:31:00,
2013-05-18 04:41:00,45.2,43.0,29.98,NNW,333,6.0,12.0,92,0.00,CLR,,0.00,0.0,WeatherDisplay:10.37,2013-05-18 03:41:00,
2013-05-18 04:46:00,45.3,43.1,29.98,NNW,335,7.0,12.0,92,0.00,CLR,,0.00,0.0,WeatherDisplay:10.37,2013-05-18 03:46:00,
2013-05-18 04:51:00,45.3,43.1,29.98,NNW,331,6.0,10.0,92,0.00,CLR,,0.00,0.0,WeatherDisplay:10.37,2013-05-18 03:51:00,
2013-05-18 04:56:00,45.3,43.1,29.98,NW,324,6.0,9.0,92,0.00,CLR,,0.00,0.0,WeatherDisplay:10.37,2013-05-18 03:56:00,
2013-05-18 05:01:00,45.3,43.1,29.98,NW,322,9.0,13.0,92,0.00,CLR,,0.00,0.0,WeatherDisplay:10.37,2013-05-18 04:01:00,
2013-05-18 05:06:00,45.5,43.3,29.98,NW,322,6.0,13.0,92,0.00,OVC,,0.00,0.0,WeatherDisplay:10.37,2013-05-18 04:06:00,
2013-05-18 05:11:00,45.5,43.0,29.98,NW,324,5.0,13.0,91,0.00,OVC,,0.00,0.0,WeatherDisplay:10.37,2013-05-18 04:11:00,
2013-05-18 05:16:00,45.6,43.1,29.98,NW,325,6.0,12.0,91,0.00,OVC,,0.00,0.0,WeatherDisplay:10.37,2013-05-18 04:16:00,
2013-05-18 05:21:00,45.6,43.1,29.98,NW,324,6.0,10.0,91,0.00,OVC,,0.00,0.0,WeatherDisplay:10.37,2013-05-18 04:21:00,
2013-05-18 05:31:00,45.7,43.2,29.98,NW,320,7.0,13.0,91,0.00,OVC,,0.00,0.0,WeatherDisplay:10.37,2013-05-18 04:31:00,
2013-05-18 05:41:00,45.7,43.2,29.98,NW,323,6.0,10.0,91,0.00,SCT,,0.00,5.0,WeatherDisplay:10.37,2013-05-18 04:41:00,
2013-05-18 05:46:00,45.7,43.2,29.98,NW,325,6.0,12.0,91,0.00,BKN,,0.00,7.0,WeatherDisplay:10.37,2013-05-18 04:46:00,
2013-05-18 05:51:00,45.7,43.2,29.98,NW,323,8.0,13.0,91,0.00,BKN,,0.00,9.0,WeatherDisplay:10.37,2013-05-18 04:51:00,
2013-05-18 06:01:00,45.9,43.4,29.98,NW,322,8.0,14.0,91,0.00,BKN,,0.00,12.0,WeatherDisplay:10.37,2013-05-18 05:01:00,
2013-05-18 06:11:00,46.0,43.2,29.98,NW,320,6.0,13.0,90,0.00,BKN,,0.00,19.0,WeatherDisplay:10.37,2013-05-18 05:11:00,
2013-05-18 06:16:00,46.0,43.2,29.98,NW,326,6.0,12.0,90,0.00,BKN,,0.00,26.0,WeatherDisplay:10.37,2013-05-18 05:16:00,
2013-05-18 06:21:00,46.0,43.2,29.98,NW,324,6.0,12.0,90,0.00,SCT,,0.00,37.0,WeatherDisplay:10.37,2013-05-18 05:21:00,
2013-05-18 06:31:00,46.2,43.4,29.98,NNW,337,6.0,10.0,90,0.00,SCT,,0.00,63.0,WeatherDisplay:10.37,2013-05-18 05:31:00,
2013-05-18 06:41:00,46.6,43.8,29.98,NW,322,6.0,9.0,90,0.00,FEW,,0.00,88.0,WeatherDisplay:10.37,2013-05-18 05:41:00,
2013-05-18 06:51:00,47.0,43.9,29.97,NW,316,7.0,12.0,89,0.00,CLR,,0.00,137.0,WeatherDisplay:10.37,2013-05-18 05:51:00,
2013-05-18 07:01:00,47.8,44.7,29.97,NW,318,9.0,14.0,89,0.00,CLR,,0.00,181.0,WeatherDisplay:10.37,2013-05-18 06:01:00,
2013-05-18 07:11:00,48.5,44.8,29.97,NW,316,8.0,17.0,87,0.00,CLR,,0.00,200.0,WeatherDisplay:10.37,2013-05-18 06:11:00,
2013-05-18 07:16:00,48.8,44.8,29.97,NW,313,12.0,18.0,86,0.00,CLR,,0.00,218.0,WeatherDisplay:10.37,2013-05-18 06:16:00,
2013-05-18 07:22:00,49.0,45.0,29.97,NW,317,8.0,14.0,86,0.00,CLR,,0.00,179.0,WeatherDisplay:10.37,2013-05-18 06:22:00,
2013-05-18 07:31:00,49.0,44.7,29.97,NW,325,7.0,15.0,85,0.00,CLR,,0.00,250.0,WeatherDisplay:10.37,2013-05-18 06:31:00,
2013-05-18 07:41:00,49.4,45.1,29.98,NNW,327,6.0,16.0,85,0.00,CLR,,0.00,239.0,WeatherDisplay:10.37,2013-05-18 06:41:00,
2013-05-18 07:46:00,49.2,44.6,29.97,NNW,328,8.0,21.0,84,0.00,FEW,,0.00,120.0,WeatherDisplay:10.37,2013-05-18 06:46:00,
2013-05-18 07:56:00,48.9,44.6,29.98,NW,326,8.0,13.0,85,0.00,BKN,,0.00,81.0,WeatherDisplay:10.37,2013-05-18 06:56:00,
2013-05-18 08:01:00,48.8,44.5,29.97,NW,325,7.0,12.0,85,0.00,BKN,,0.00,109.0,WeatherDisplay:10.37,2013-05-18 07:01:00,
2013-05-18 08:11:00,49.0,45.0,29.97,NW,324,8.0,13.0,86,0.00,SCT,,0.00,214.0,WeatherDisplay:10.37,2013-05-18 07:11:00,
2013-05-18 08:16:00,49.2,45.2,29.98,NNW,328,7.0,13.0,86,0.00,SCT,,0.00,58.0,WeatherDisplay:10.37,2013-05-18 07:16:00,
2013-05-18 08:21:00,49.2,44.9,29.97,NNW,329,8.0,16.0,85,0.00,BKN,,0.00,97.0,WeatherDisplay:10.37,2013-05-18 07:21:00,
2013-05-18 08:31:00,49.1,44.8,29.97,NNW,338,5.0,12.0,85,0.00,BKN,,0.00,132.0,WeatherDisplay:10.37,2013-05-18 07:31:00,
2013-05-18 08:41:00,49.3,44.9,29.97,NW,321,5.0,13.0,85,0.00,BKN,,0.00,125.0,WeatherDisplay:10.37,2013-05-18 07:41:00,
2013-05-18 08:46:00,49.4,45.1,29.97,NW,325,6.0,10.0,85,0.00,BKN,,0.00,128.0,WeatherDisplay:10.37,2013-05-18 07:46:00,
2013-05-18 08:51:00,49.4,45.1,29.97,NW,325,5.0,16.0,85,0.00,BKN,,0.00,127.0,WeatherDisplay:10.37,2013-05-18 07:51:00,
2013-05-18 09:01:00,49.5,45.5,29.97,NW,314,6.0,10.0,86,0.00,BKN,,0.00,146.0,WeatherDisplay:10.37,2013-05-18 08:01:00,
2013-05-18 09:11:00,49.4,45.7,29.97,NNW,333,7.0,13.0,87,0.00,BKN,,0.00,234.0,WeatherDisplay:10.37,2013-05-18 08:11:00,
2013-05-18 09:16:00,49.5,45.8,29.97,NW,323,7.0,13.0,87,0.00,BKN,,0.00,269.0,WeatherDisplay:10.37,2013-05-18 08:16:00,
2013-05-18 09:21:00,49.6,46.2,29.97,NW,326,7.0,14.0,88,0.00,BKN,,0.00,149.0,WeatherDisplay:10.37,2013-05-18 08:21:00,
2013-05-18 09:31:00,49.5,46.1,29.97,NNW,328,9.0,15.0,88,0.00,BKN,,0.00,172.0,WeatherDisplay:10.37,2013-05-18 08:31:00,
2013-05-18 09:41:00,49.3,46.2,29.97,NW,322,6.0,12.0,89,0.00,BKN,,0.00,202.0,WeatherDisplay:10.37,2013-05-18 08:41:00,
2013-05-18 09:51:00,49.4,46.3,29.97,NW,326,5.0,14.0,89,0.00,BKN,,0.00,139.0,WeatherDisplay:10.37,2013-05-18 08:51:00,
2013-05-18 10:01:00,49.4,46.6,29.97,NNW,330,6.0,12.0,90,0.00,BKN,,0.00,186.0,WeatherDisplay:10.37,2013-05-18 09:01:00,
2013-05-18 10:11:00,49.6,47.1,29.96,NW,323,5.0,13.0,91,0.00,BKN,,0.00,283.0,WeatherDisplay:10.37,2013-05-18 09:11:00,
2013-05-18 10:16:00,49.7,47.2,29.96,NNW,328,8.0,12.0,91,0.00,BKN,,0.00,248.0,WeatherDisplay:10.37,2013-05-18 09:16:00,
2013-05-18 10:21:00,49.6,47.1,29.96,NW,323,7.0,13.0,91,0.00,BKN,,0.00,144.0,WeatherDisplay:10.37,2013-05-18 09:21:00,
2013-05-18 10:31:00,49.4,46.9,29.96,NW,319,6.0,13.0,91,0.00,BKN,,0.00,185.0,WeatherDisplay:10.37,2013-05-18 09:31:00,
2013-05-18 10:41:00,50.6,48.4,29.95,NNW,327,8.0,13.0,92,0.00,FEW,,0.00,671.0,WeatherDisplay:10.37,2013-05-18 09:41:00,
2013-05-18 10:51:00,51.2,48.1,29.95,NW,321,7.0,17.0,89,0.00,SCT,,0.00,299.0,WeatherDisplay:10.37,2013-05-18 09:51:00,
2013-05-18 11:01:00,50.9,47.2,29.95,NNW,327,6.0,16.0,87,0.00,BKN,,0.00,190.0,WeatherDisplay:10.37,2013-05-18 10:01:00,
2013-05-18 11:11:00,50.7,46.9,29.94,NW,317,7.0,12.0,87,0.00,BKN,,0.00,186.0,WeatherDisplay:10.37,2013-05-18 10:11:00,
2013-05-18 11:16:00,50.4,46.7,29.94,NW,316,7.0,12.0,87,0.00,BKN,,0.00,155.0,WeatherDisplay:10.37,2013-05-18 10:16:00,
2013-05-18 11:21:00,50.2,46.8,29.94,NW,317,7.0,12.0,88,0.00,BKN,,0.00,186.0,WeatherDisplay:10.37,2013-05-18 10:21:00,
2013-05-18 11:31:00,49.7,46.3,29.94,NW,321,8.0,13.0,88,0.00,BKN,,0.00,72.0,WeatherDisplay:10.37,2013-05-18 10:31:00,
2013-05-18 11:41:00,49.4,46.3,29.94,NW,322,8.0,13.0,89,0.00,BKN,,0.00,125.0,WeatherDisplay:10.37,2013-05-18 10:41:00,
2013-05-18 11:46:00,49.2,46.4,29.94,NW,326,8.0,15.0,90,0.00,BKN,,0.00,230.0,WeatherDisplay:10.37,2013-05-18 10:46:00,
2013-05-18 11:51:00,49.4,46.6,29.94,NW,323,6.0,12.0,90,0.00,BKN,,0.00,343.0,WeatherDisplay:10.37,2013-05-18 10:51:00,
2013-05-18 12:01:00,50.2,47.4,29.93,NNW,327,7.0,12.0,90,0.00,BKN,,0.00,301.0,WeatherDisplay:10.37,2013-05-18 11:01:00,
2013-05-18 12:11:00,49.9,46.5,29.93,NNW,333,8.0,18.0,88,0.00,BKN,,0.00,77.0,WeatherDisplay:10.37,2013-05-18 11:11:00,
2013-05-18 12:16:00,49.5,46.1,29.93,NNW,334,9.0,16.0,88,0.00,BKN,,0.00,84.0,WeatherDisplay:10.37,2013-05-18 11:16:00,
2013-05-18 12:26:00,49.0,46.2,29.93,NW,325,7.0,12.0,90,0.01,RA,,0.01,239.0,WeatherDisplay:10.37,2013-05-18 11:26:00,
2013-05-18 12:31:00,49.3,46.8,29.93,NW,326,6.0,10.0,91,0.00,RA,,0.01,278.0,WeatherDisplay:10.37,2013-05-18 11:31:00,
2013-05-18 12:41:00,49.4,46.9,29.93,NW,317,7.0,13.0,91,0.00,BKN,,0.01,116.0,WeatherDisplay:10.37,2013-05-18 11:41:00,
2013-05-18 12:46:00,49.3,46.5,29.93,NW,313,9.0,14.0,90,0.00,BKN,,0.01,251.0,WeatherDisplay:10.37,2013-05-18 11:46:00,
2013-05-18 12:51:00,49.4,46.9,29.92,NW,316,9.0,13.0,91,0.00,BKN,,0.01,155.0,WeatherDisplay:10.37,2013-05-18 11:51:00,
2013-05-18 13:01:00,49.5,46.7,29.92,NW,318,8.0,13.0,90,0.00,BKN,,0.01,258.0,WeatherDisplay:10.37,2013-05-18 12:01:00,
2013-05-18 13:11:00,49.8,46.7,29.92,NW,318,9.0,15.0,89,0.00,BKN,,0.01,206.0,WeatherDisplay:10.37,2013-05-18 12:11:00,
2013-05-18 13:16:00,49.9,46.5,29.92,NW,315,10.0,16.0,88,0.00,BKN,,0.01,169.0,WeatherDisplay:10.37,2013-05-18 12:16:00,
2013-05-18 13:21:00,49.9,46.5,29.91,NW,316,7.0,12.0,88,0.00,BKN,,0.01,134.0,WeatherDisplay:10.37,2013-05-18 12:21:00,
2013-05-18 13:31:00,49.9,46.5,29.91,NW,313,9.0,17.0,88,0.00,BKN,,0.01,193.0,WeatherDisplay:10.37,2013-05-18 12:31:00,
2013-05-18 13:41:00,49.6,46.2,29.91,NW,312,7.0,12.0,88,0.00,BKN,,0.01,141.0,WeatherDisplay:10.37,2013-05-18 12:41:00,
2013-05-18 13:51:00,49.4,46.0,29.90,NW,317,9.0,18.0,88,0.00,BKN,,0.01,141.0,WeatherDisplay:10.37,2013-05-18 12:51:00,
2013-05-18 14:01:00,49.1,46.0,29.90,NW,310,8.0,15.0,89,0.00,BKN,,0.01,130.0,WeatherDisplay:10.37,2013-05-18 13:01:00,
2013-05-18 14:11:00,48.9,45.8,29.90,NW,323,5.0,12.0,89,0.00,BKN,,0.01,93.0,WeatherDisplay:10.37,2013-05-18 13:11:00,
2013-05-18 14:16:00,48.8,45.7,29.90,NW,314,8.0,17.0,89,0.00,BKN,,0.01,144.0,WeatherDisplay:10.37,2013-05-18 13:16:00,
2013-05-18 14:21:00,48.7,45.9,29.89,NW,319,6.0,13.0,90,0.00,BKN,,0.01,120.0,WeatherDisplay:10.37,2013-05-18 13:21:00,
2013-05-18 15:20:00,48.7,45.6,29.87,WNW,301,7.0,13.0,89,0.00,BKN,,0.01,60.0,WeatherDisplay:10.37,2013-05-18 14:20:00,
2013-05-18 15:25:00,48.6,45.5,29.87,WNW,303,8.0,16.0,89,0.00,BKN,,0.01,58.0,WeatherDisplay:10.37,2013-05-18 14:25:00,
2013-05-18 15:31:00,48.5,45.7,29.87,NW,312,7.0,15.0,90,0.00,BKN,,0.01,53.0,WeatherDisplay:10.37,2013-05-18 14:31:00,
2013-05-18 15:40:00,48.4,45.6,29.87,NW,317,7.0,14.0,90,0.00,BKN,,0.01,44.0,WeatherDisplay:10.37,2013-05-18 14:40:00,
2013-05-18 15:45:00,48.4,45.6,29.86,NW,314,7.0,13.0,90,0.00,BKN,,0.01,47.0,WeatherDisplay:10.37,2013-05-18 14:45:00,
2013-05-18 15:50:00,48.5,45.7,29.86,NW,305,7.0,12.0,90,0.00,OVC,,0.01,47.0,WeatherDisplay:10.37,2013-05-18 14:50:00,
2013-05-18 16:00:00,48.6,45.8,29.86,WNW,303,8.0,13.0,90,0.00,BKN,,0.01,53.0,WeatherDisplay:10.37,2013-05-18 15:00:00,
2013-05-18 16:10:00,48.6,45.8,29.85,NW,315,5.0,10.0,90,0.00,BKN,,0.01,40.0,WeatherDisplay:10.37,2013-05-18 15:10:00,
2013-05-18 16:15:00,48.6,45.8,29.85,NW,311,6.0,12.0,90,0.00,BKN,,0.01,46.0,WeatherDisplay:10.37,2013-05-18 15:15:00,
2013-05-18 16:20:00,48.5,46.0,29.85,NW,311,7.0,14.0,91,0.00,BKN,,0.01,51.0,WeatherDisplay:10.37,2013-05-18 15:20:00,
2013-05-18 16:30:00,48.4,45.9,29.84,NW,309,7.0,12.0,91,0.00,BKN,,0.01,51.0,WeatherDisplay:10.37,2013-05-18 15:30:00,
2013-05-18 16:35:00,48.4,45.9,29.84,NW,310,7.0,9.0,91,0.00,BKN,,0.01,65.0,WeatherDisplay:10.37,2013-05-18 15:35:00,
2013-05-18 16:40:00,48.5,46.3,29.84,NW,308,6.0,12.0,92,0.00,BKN,,0.01,62.0,WeatherDisplay:10.37,2013-05-18 15:40:00,
2013-05-18 16:45:00,48.5,46.3,29.84,NW,309,7.0,12.0,92,0.01,RA,,0.02,69.0,WeatherDisplay:10.37,2013-05-18 15:45:00,
2013-05-18 16:50:00,48.5,46.3,29.84,NW,312,7.0,13.0,92,0.00,RA,,0.02,65.0,WeatherDisplay:10.37,2013-05-18 15:50:00,
2013-05-18 16:55:00,48.5,46.3,29.84,NW,310,6.0,12.0,92,0.00,BKN,,0.02,67.0,WeatherDisplay:10.37,2013-05-18 15:55:00,
2013-05-18 17:05:00,48.6,46.4,29.83,WNW,291,6.0,12.0,92,0.00,BKN,,0.02,79.0,WeatherDisplay:10.37,2013-05-18 16:05:00,
2013-05-18 17:50:00,48.7,46.8,29.82,NW,312,7.0,12.0,93,0.00,BKN,,0.02,74.0,WeatherDisplay:10.37,2013-05-18 16:50:00,
2013-05-18 18:01:00,48.7,46.8,29.81,WNW,297,5.0,8.0,93,0.00,BKN,,0.02,60.0,WeatherDisplay:10.37,2013-05-18 17:01:00,
2013-05-18 18:10:00,48.6,46.7,29.81,WNW,296,6.0,10.0,93,0.00,BKN,,0.02,49.0,WeatherDisplay:10.37,2013-05-18 17:10:00,
2013-05-18 18:15:00,48.6,46.7,29.81,WNW,294,3.0,7.0,93,0.00,BKN,,0.02,44.0,WeatherDisplay:10.37,2013-05-18 17:15:00,
2013-05-18 18:25:00,48.6,46.7,29.80,NW,307,5.0,10.0,93,0.00,BKN,,0.02,81.0,WeatherDisplay:10.37,2013-05-18 17:25:00,
2013-05-18 18:30:00,48.6,46.7,29.80,WNW,296,5.0,13.0,93,0.00,BKN,,0.02,83.0,WeatherDisplay:10.37,2013-05-18 17:30:00,
2013-05-18 18:40:00,48.8,46.9,29.81,NW,312,2.0,6.0,93,0.01,RA,,0.03,63.0,WeatherDisplay:10.37,2013-05-18 17:40:00,
2013-05-18 18:45:00,48.9,47.0,29.80,NW,310,5.0,8.0,93,0.00,RA,,0.03,65.0,WeatherDisplay:10.37,2013-05-18 17:45:00,
2013-05-18 18:50:00,48.9,47.0,29.80,NW,308,5.0,7.0,93,0.00,BKN,,0.03,74.0,WeatherDisplay:10.37,2013-05-18 17:50:00,
2013-05-18 18:55:00,49.0,47.0,29.80,NW,308,6.0,12.0,93,0.00,BKN,,0.03,93.0,WeatherDisplay:10.37,2013-05-18 17:55:00,
2013-05-18 19:00:00,49.0,47.1,29.79,WNW,297,5.0,12.0,93,0.00,BKN,,0.03,54.0,WeatherDisplay:10.37,2013-05-18 18:00:00,
2013-05-18 19:10:00,48.9,47.0,29.79,WNW,295,5.0,9.0,93,0.00,BKN,,0.03,51.0,WeatherDisplay:10.37,2013-05-18 18:10:00,
2013-05-18 19:15:00,48.8,46.9,29.79,WNW,288,3.0,7.0,93,0.00,BKN,,0.03,53.0,WeatherDisplay:10.37,2013-05-18 18:15:00,
2013-05-18 19:20:00,48.8,46.9,29.79,West,277,3.0,7.0,93,0.00,BKN,,0.03,70.0,WeatherDisplay:10.37,2013-05-18 18:20:00,
2013-05-18 19:30:00,48.9,47.0,29.79,West,274,3.0,8.0,93,0.00,BKN,,0.03,63.0,WeatherDisplay:10.37,2013-05-18 18:30:00,
2013-05-18 19:40:00,49.0,47.1,29.78,West,274,3.0,7.0,93,0.00,BKN,,0.03,47.0,WeatherDisplay:10.37,2013-05-18 18:40:00,
2013-05-18 19:45:00,49.1,47.2,29.78,West,265,5.0,8.0,93,0.00,BKN,,0.03,33.0,WeatherDisplay:10.37,2013-05-18 18:45:00,
2013-05-18 19:50:00,49.1,47.2,29.79,West,260,2.0,5.0,93,0.00,BKN,,0.03,25.0,WeatherDisplay:10.37,2013-05-18 18:50:00,
2013-05-18 20:01:00,49.2,47.3,29.79,West,260,2.0,5.0,93,0.00,BKN,,0.03,19.0,WeatherDisplay:10.37,2013-05-18 19:01:00,
2013-05-18 20:10:00,49.2,47.3,29.78,SW,234,2.0,3.0,93,0.00,BKN,,0.03,19.0,WeatherDisplay:10.37,2013-05-18 19:10:00,
2013-05-18 20:15:00,49.2,47.3,29.78,SW,227,3.0,4.0,93,0.00,BKN,,0.03,16.0,WeatherDisplay:10.37,2013-05-18 19:15:00,
2013-05-18 20:20:00,49.3,47.3,29.78,SW,227,1.0,4.0,93,0.00,BKN,,0.03,11.0,WeatherDisplay:10.37,2013-05-18 19:20:00,
2013-05-18 20:30:00,49.2,47.3,29.79,SW,227,1.0,4.0,93,0.00,BKN,,0.03,5.0,WeatherDisplay:10.37,2013-05-18 19:30:00,
2013-05-18 20:40:00,49.3,47.3,29.79,SW,227,1.0,3.0,93,0.00,OVC,,0.03,0.0,WeatherDisplay:10.37,2013-05-18 19:40:00,
2013-05-18 20:45:00,49.3,47.4,29.79,SW,227,2.0,4.0,93,0.00,OVC,,0.03,0.0,WeatherDisplay:10.37,2013-05-18 19:45:00,
2013-05-18 20:50:00,49.2,47.3,29.79,SW,227,2.0,5.0,93,0.00,OVC,,0.03,0.0,WeatherDisplay:10.37,2013-05-18 19:50:00,
2013-05-18 20:55:00,49.2,47.3,29.79,SW,227,5.0,7.0,93,0.00,OVC,,0.03,0.0,WeatherDisplay:10.37,2013-05-18 19:55:00,
2013-05-18 21:01:00,49.1,47.2,29.79,SW,227,2.0,4.0,93,0.00,OVC,,0.03,0.0,WeatherDisplay:10.37,2013-05-18 20:01:00,
2013-05-18 21:10:00,49.1,47.2,29.79,SW,227,3.0,5.0,93,0.00,OVC,,0.03,0.0,WeatherDisplay:10.37,2013-05-18 20:10:00,
2013-05-18 21:16:00,49.1,47.4,29.79,SW,227,3.0,5.0,94,0.00,OVC,,0.03,0.0,WeatherDisplay:10.37,2013-05-18 20:16:00,
2013-05-18 21:25:00,48.9,47.3,29.79,SW,227,2.0,5.0,94,0.00,OVC,,0.03,0.0,WeatherDisplay:10.37,2013-05-18 20:25:00,
2013-05-18 21:31:00,48.9,47.2,29.79,SW,227,3.0,5.0,94,0.01,RA,,0.04,0.0,WeatherDisplay:10.37,2013-05-18 20:31:00,
2013-05-18 21:41:00,48.7,47.1,29.79,SW,227,2.0,5.0,94,0.00,,,0.04,0.0,WeatherDisplay:10.37,2013-05-18 20:41:00,
2013-05-18 21:46:00,48.6,47.0,29.79,SW,227,3.0,6.0,94,0.00,CLR,,0.04,0.0,WeatherDisplay:10.37,2013-05-18 20:46:00,
2013-05-18 21:51:00,48.5,46.9,29.78,SW,227,3.0,5.0,94,0.00,OVC,,0.04,0.0,WeatherDisplay:10.37,2013-05-18 20:51:00,
2013-05-18 21:56:00,48.4,46.8,29.78,SW,227,5.0,7.0,94,0.00,OVC,,0.04,0.0,WeatherDisplay:10.37,2013-05-18 20:56:00,
2013-05-18 22:01:00,48.3,46.7,29.78,SW,227,5.0,7.0,94,0.00,CLR,,0.04,0.0,WeatherDisplay:10.37,2013-05-18 21:01:00,
2013-05-18 22:11:00,48.2,46.6,29.78,SW,227,3.0,7.0,94,0.00,CLR,,0.04,0.0,WeatherDisplay:10.37,2013-05-18 21:11:00,
2013-05-18 22:16:00,48.1,46.5,29.77,SW,227,5.0,7.0,94,0.00,CLR,,0.04,0.0,WeatherDisplay:10.37,2013-05-18 21:16:00,
2013-05-18 22:25:00,48.0,46.4,29.77,SW,227,5.0,7.0,94,0.00,CLR,,0.04,0.0,WeatherDisplay:10.37,2013-05-18 21:25:00,
2013-05-18 22:31:00,48.0,46.6,29.77,SW,227,5.0,7.0,95,0.00,CLR,,0.04,0.0,WeatherDisplay:10.37,2013-05-18 21:31:00,
2013-05-18 22:41:00,48.0,46.6,29.77,SW,227,6.0,8.0,95,0.00,CLR,,0.04,0.0,WeatherDisplay:10.37,2013-05-18 21:41:00,
2013-05-18 22:46:00,48.0,46.6,29.76,SW,228,5.0,8.0,95,0.00,CLR,,0.04,0.0,WeatherDisplay:10.37,2013-05-18 21:46:00,
2013-05-18 22:51:00,48.0,46.6,29.76,SW,230,3.0,8.0,95,0.00,CLR,,0.04,0.0,WeatherDisplay:10.37,2013-05-18 21:51:00,
2013-05-18 22:56:00,47.9,46.6,29.76,SW,234,6.0,8.0,95,0.00,CLR,,0.04,0.0,WeatherDisplay:10.37,2013-05-18 21:56:00,
2013-05-18 23:01:00,47.8,46.2,29.76,WSW,237,2.0,7.0,94,0.00,CLR,,0.04,0.0,WeatherDisplay:10.37,2013-05-18 22:01:00,
2013-05-18 23:11:00,47.7,46.3,29.76,WSW,239,3.0,7.0,95,0.00,CLR,,0.04,0.0,WeatherDisplay:10.37,2013-05-18 22:11:00,
2013-05-18 23:16:00,47.7,46.3,29.76,WSW,239,3.0,6.0,95,0.00,CLR,,0.04,0.0,WeatherDisplay:10.37,2013-05-18 22:16:00,
2013-05-18 23:26:00,47.7,46.3,29.76,WSW,239,2.0,5.0,95,0.00,CLR,,0.04,0.0,WeatherDisplay:10.37,2013-05-18 22:26:00,
2013-05-18 23:31:00,47.7,46.3,29.76,WSW,239,1.0,5.0,95,0.00,CLR,,0.04,0.0,WeatherDisplay:10.37,2013-05-18 22:31:00,
2013-05-18 23:41:00,47.7,46.3,29.76,WSW,239,3.0,6.0,95,0.00,CLR,,0.04,0.0,WeatherDisplay:10.37,2013-05-18 22:41:00,
2013-05-18 23:46:00,47.8,46.4,29.76,WSW,239,3.0,5.0,95,0.00,CLR,,0.04,0.0,WeatherDisplay:10.37,2013-05-18 22:46:00,
2013-05-18 23:51:00,47.8,46.4,29.76,WSW,239,2.0,5.0,95,0.00,CLR,,0.04,0.0,WeatherDisplay:10.37,2013-05-18 22:51:00,